Time;durP1;ratioP1;P1;durP2;ratioP2;P2;SDS_P1;SDS_P2;PMS_P1;PMS_P2;Temp;Humidity;BMP_temperature;BMP_pressure;BME280_temperature;BME280_humidity;BME280_pressure;Samples;Min_cycle;Max_cycle;Signal;HPM_P1;HPM_P2
2022/03/28 00:01:13;;;;;;;27.05;12.88;;;;;;;;;;5038942;28;20106;-96
2022/03/28 00:03:39;;;;;;;30.02;12.18;;;;;;;;;;5038521;28;20033;-96
2022/03/28 00:06:09;;;;;;;26.98;11.95;;;;;;;;;;5039336;28;20315;-96
2022/03/28 00:08:35;;;;;;;31.05;13.73;;;;;;;;;;5038252;28;20026;-96
2022/03/28 00:11:01;;;;;;;29.75;13.38;;;;;;;;;;5038315;28;20040;-95
2022/03/28 00:13:27;;;;;;;31.08;15.40;;;;;;;;;;5039219;28;20021;-96
2022/03/28 00:15:54;;;;;;;40.17;17.65;;;;;;;;;;5038907;28;20025;-96
2022/03/28 00:18:35;;;;;;;43.92;20.02;;;;;;;;;;5038131;28;20021;-96
2022/03/28 00:21:01;;;;;;;42.38;21.63;;;;;;;;;;5038295;28;20404;-96
2022/03/28 00:23:29;;;;;;;38.63;19.50;;;;;;;;;;5038788;28;20407;-94
2022/03/28 00:25:55;;;;;;;38.10;18.08;;;;;;;;;;5038849;28;20351;-94
2022/03/28 00:28:21;;;;;;;34.47;17.65;;;;;;;;;;5039794;28;20045;-95
2022/03/28 00:30:48;;;;;;;36.33;16.42;;;;;;;;;;5038252;28;20049;-95
2022/03/28 00:33:14;;;;;;;31.40;16.25;;;;;;;;;;5038531;28;20030;-94
2022/03/28 00:35:40;;;;;;;28.88;15.27;;;;;;;;;;5038727;28;20018;-94
2022/03/28 00:38:06;;;;;;;38.47;15.98;;;;;;;;;;5040454;28;20029;-96
2022/03/28 00:40:33;;;;;;;33.85;16.30;;;;;;;;;;5039871;28;20026;-96
2022/03/28 00:42:59;;;;;;;34.25;16.02;;;;;;;;;;5037934;28;20095;-96
2022/03/28 00:45:26;;;;;;;29.92;16.00;;;;;;;;;;5038277;28;20144;-95
2022/03/28 00:47:53;;;;;;;30.50;14.73;;;;;;;;;;5038226;28;20328;-95
2022/03/28 00:50:19;;;;;;;29.95;14.45;;;;;;;;;;5038233;28;20033;-96
2022/03/28 00:52:45;;;;;;;36.80;16.15;;;;;;;;;;5038816;28;20028;-96
2022/03/28 00:55:12;;;;;;;36.25;17.60;;;;;;;;;;5038197;28;20017;-96
2022/03/28 00:57:38;;;;;;;39.65;17.67;;;;;;;;;;5039318;28;20017;-96
2022/03/28 01:00:07;;;;;;;36.83;18.42;;;;;;;;;;5037725;28;20132;-96
2022/03/28 01:02:33;;;;;;;36.70;18.98;;;;;;;;;;5040303;28;20079;-96
2022/03/28 01:04:59;;;;;;;38.42;19.15;;;;;;;;;;5041750;28;20056;-96
2022/03/28 01:07:26;;;;;;;39.58;19.95;;;;;;;;;;5040785;28;20108;-96
2022/03/28 01:10:02;;;;;;;41.28;20.38;;;;;;;;;;5043312;28;20060;-96
2022/03/28 01:12:30;;;;;;;42.20;21.05;;;;;;;;;;5039031;28;20026;-95
2022/03/28 01:14:56;;;;;;;42.42;19.80;;;;;;;;;;5038977;28;20407;-96
2022/03/28 01:20:07;;;;;;;38.03;19.77;;;;;;;;;;5037902;28;20033;-96
2022/03/28 01:22:33;;;;;;;35.80;20.42;;;;;;;;;;5037260;28;20022;-95
2022/03/28 01:25:01;;;;;;;41.45;22.30;;;;;;;;;;5037978;28;20112;-96
2022/03/28 01:27:27;;;;;;;39.85;22.27;;;;;;;;;;5038018;28;20025;-93
2022/03/28 01:29:53;;;;;;;39.13;21.55;;;;;;;;;;5037450;28;20055;-94
2022/03/28 01:32:19;;;;;;;37.30;20.05;;;;;;;;;;5037595;28;20032;-95
2022/03/28 01:34:45;;;;;;;38.25;21.52;;;;;;;;;;5037608;28;20495;-94
2022/03/28 01:37:12;;;;;;;39.15;20.02;;;;;;;;;;5038001;28;20029;-93
2022/03/28 01:39:38;;;;;;;42.17;19.67;;;;;;;;;;5037777;28;20033;-94
2022/03/28 01:42:04;;;;;;;32.90;17.20;;;;;;;;;;5036747;28;20025;-93
2022/03/28 01:44:30;;;;;;;32.22;15.48;;;;;;;;;;5037536;28;20021;-95
2022/03/28 01:46:56;;;;;;;35.45;14.40;;;;;;;;;;5036421;28;20067;-93
2022/03/28 01:49:22;;;;;;;31.95;14.55;;;;;;;;;;5037762;28;20025;-93
2022/03/28 01:51:49;;;;;;;35.80;15.52;;;;;;;;;;5037402;28;20026;-94
2022/03/28 01:54:15;;;;;;;35.15;15.50;;;;;;;;;;5037411;28;20071;-93
2022/03/28 01:56:42;;;;;;;30.73;14.48;;;;;;;;;;5037006;28;20060;-94
2022/03/28 01:59:08;;;;;;;28.98;14.00;;;;;;;;;;5037597;28;20040;-93
2022/03/28 02:01:35;;;;;;;32.08;13.65;;;;;;;;;;5037413;28;20404;-93
2022/03/28 02:04:02;;;;;;;31.48;14.52;;;;;;;;;;5037421;28;20029;-92
2022/03/28 02:06:28;;;;;;;27.02;14.13;;;;;;;;;;5036360;28;20021;-94
2022/03/28 02:08:55;;;;;;;31.38;14.40;;;;;;;;;;5037463;28;20033;-92
2022/03/28 02:11:21;;;;;;;32.30;15.00;;;;;;;;;;5037863;28;20069;-92
2022/03/28 02:13:47;;;;;;;28.30;13.50;;;;;;;;;;5037823;28;20092;-93
2022/03/28 02:16:13;;;;;;;25.50;12.15;;;;;;;;;;5037615;28;20025;-93
2022/03/28 02:18:40;;;;;;;27.02;12.82;;;;;;;;;;5037367;28;20026;-93
2022/03/28 02:21:06;;;;;;;24.27;13.25;;;;;;;;;;5037148;28;20026;-93
2022/03/28 02:23:32;;;;;;;27.05;13.35;;;;;;;;;;5037257;28;20032;-93
2022/03/28 02:25:58;;;;;;;30.38;13.43;;;;;;;;;;5037236;28;20400;-93
2022/03/28 02:28:24;;;;;;;24.27;12.45;;;;;;;;;;5037064;28;20021;-93
2022/03/28 02:30:50;;;;;;;25.20;12.70;;;;;;;;;;5037029;28;20045;-93
2022/03/28 02:33:17;;;;;;;26.83;11.95;;;;;;;;;;5041052;28;20109;-93
2022/03/28 02:35:43;;;;;;;27.92;10.73;;;;;;;;;;5041231;28;20032;-92
2022/03/28 02:38:09;;;;;;;23.60;11.75;;;;;;;;;;5041116;28;20021;-93
2022/03/28 02:40:36;;;;;;;28.23;13.27;;;;;;;;;;5040787;28;20029;-93
2022/03/28 02:43:03;;;;;;;34.67;15.98;;;;;;;;;;5040623;28;20048;-92
2022/03/28 02:45:33;;;;;;;36.55;18.25;;;;;;;;;;5040676;28;20029;-93
2022/03/28 02:47:59;;;;;;;41.35;19.13;;;;;;;;;;5040343;28;20030;-92
2022/03/28 02:50:28;;;;;;;39.10;18.30;;;;;;;;;;5039971;28;20033;-93
2022/03/28 02:52:55;;;;;;;41.33;18.98;;;;;;;;;;5040491;28;20031;-94
2022/03/28 02:55:21;;;;;;;44.42;18.35;;;;;;;;;;5040886;28;20100;-93
2022/03/28 02:57:47;;;;;;;37.38;17.80;;;;;;;;;;5040769;28;20025;-93
2022/03/28 03:00:14;;;;;;;36.95;17.83;;;;;;;;;;5040730;28;20375;-93
2022/03/28 03:02:42;;;;;;;34.47;17.25;;;;;;;;;;5040709;28;20037;-91
2022/03/28 03:05:09;;;;;;;41.72;17.67;;;;;;;;;;5040269;28;20032;-95
2022/03/28 03:07:35;;;;;;;33.60;15.73;;;;;;;;;;5039523;28;20037;-94
2022/03/28 03:10:01;;;;;;;34.58;15.95;;;;;;;;;;5040337;28;20411;-92
2022/03/28 03:12:27;;;;;;;35.95;16.90;;;;;;;;;;5040191;28;20037;-94
2022/03/28 03:14:53;;;;;;;31.95;15.80;;;;;;;;;;5039775;28;20419;-93
2022/03/28 03:17:20;;;;;;;31.40;15.15;;;;;;;;;;5040138;28;20034;-92
2022/03/28 03:19:46;;;;;;;32.47;15.77;;;;;;;;;;5040181;28;20021;-93
2022/03/28 03:22:16;;;;;;;94.93;22.40;;;;;;;;;;5040061;28;20404;-92
2022/03/28 03:24:42;;;;;;;80.78;19.98;;;;;;;;;;5055741;28;20026;-93
2022/03/28 03:27:08;;;;;;;60.15;19.30;;;;;;;;;;5039658;28;20025;-94
2022/03/28 03:29:35;;;;;;;57.95;18.92;;;;;;;;;;5039408;28;20050;-94
2022/03/28 03:32:01;;;;;;;59.20;18.13;;;;;;;;;;5039892;28;20018;-94
2022/03/28 03:34:27;;;;;;;50.70;17.73;;;;;;;;;;5038830;28;20347;-93
2022/03/28 03:36:54;;;;;;;48.75;17.88;;;;;;;;;;5038864;28;20032;-93
2022/03/28 03:39:22;;;;;;;50.35;18.02;;;;;;;;;;5038888;28;20053;-94
2022/03/28 03:41:48;;;;;;;40.95;17.15;;;;;;;;;;5039470;28;20059;-92
2022/03/28 03:44:14;;;;;;;45.13;17.52;;;;;;;;;;5040226;28;20025;-94
2022/03/28 03:46:40;;;;;;;41.28;17.63;;;;;;;;;;5039072;28;20041;-92
2022/03/28 03:52:10;;;;;;;38.95;16.70;;;;;;;;;;5039600;28;20341;-92
2022/03/28 03:54:36;;;;;;;40.03;17.55;;;;;;;;;;5039939;28;20021;-93
2022/03/28 03:57:02;;;;;;;39.13;17.52;;;;;;;;;;5038464;28;20028;-93
2022/03/28 03:59:28;;;;;;;33.55;17.02;;;;;;;;;;5039391;28;20045;-93
2022/03/28 04:01:54;;;;;;;40.38;17.42;;;;;;;;;;5039224;28;20091;-92
2022/03/28 04:04:21;;;;;;;39.67;17.75;;;;;;;;;;5054948;28;20033;-93
2022/03/28 04:06:48;;;;;;;43.25;16.55;;;;;;;;;;5039195;28;20025;-93
2022/03/28 04:09:14;;;;;;;36.67;15.55;;;;;;;;;;5039147;28;20455;-94
2022/03/28 04:11:41;;;;;;;35.58;15.27;;;;;;;;;;5039468;28;20104;-94
2022/03/28 04:14:07;;;;;;;28.67;14.82;;;;;;;;;;5054584;28;20036;-93
2022/03/28 04:16:34;;;;;;;31.33;14.77;;;;;;;;;;5039060;28;20022;-93
2022/03/28 04:19:00;;;;;;;35.05;14.52;;;;;;;;;;5039321;28;20025;-92
2022/03/28 04:21:26;;;;;;;40.85;14.02;;;;;;;;;;5054596;28;20033;-93
2022/03/28 04:23:52;;;;;;;47.47;14.75;;;;;;;;;;5039049;28;20327;-93
2022/03/28 04:26:18;;;;;;;58.88;16.10;;;;;;;;;;5054315;28;20124;-93
2022/03/28 04:28:44;;;;;;;58.75;23.70;;;;;;;;;;5038531;28;20079;-93
2022/03/28 04:31:11;;;;;;;49.53;21.42;;;;;;;;;;5038806;28;20415;-92
2022/03/28 04:33:37;;;;;;;45.67;22.35;;;;;;;;;;5038471;28;20029;-93
2022/03/28 04:36:04;;;;;;;41.17;16.23;;;;;;;;;;5038391;28;20018;-92
2022/03/28 04:38:30;;;;;;;35.70;14.63;;;;;;;;;;5038664;28;20108;-93
2022/03/28 04:40:56;;;;;;;30.02;13.77;;;;;;;;;;5037444;28;20338;-93
2022/03/28 04:43:22;;;;;;;22.85;10.57;;;;;;;;;;5038632;28;20030;-93
2022/03/28 04:45:49;;;;;;;19.85;10.15;;;;;;;;;;5037916;28;20033;-94
2022/03/28 04:48:15;;;;;;;19.95;10.98;;;;;;;;;;5039491;28;20045;-94
2022/03/28 04:50:41;;;;;;;21.88;9.63;;;;;;;;;;5038067;28;20029;-94
2022/03/28 04:53:07;;;;;;;18.98;8.35;;;;;;;;;;5037620;28;20025;-92
2022/03/28 04:55:34;;;;;;;24.55;9.38;;;;;;;;;;5038392;28;20100;-92
2022/03/28 04:58:00;;;;;;;17.63;8.00;;;;;;;;;;5037126;28;20028;-93
2022/03/28 05:00:26;;;;;;;22.45;8.52;;;;;;;;;;5038105;28;20071;-94
2022/03/28 05:02:52;;;;;;;22.17;9.13;;;;;;;;;;5038024;28;20028;-92
2022/03/28 05:08:21;;;;;;;19.13;9.23;;;;;;;;;;5039675;28;20040;-93
2022/03/28 05:10:47;;;;;;;26.95;9.88;;;;;;;;;;5038174;28;20040;-92
2022/03/28 05:13:14;;;;;;;24.77;8.60;;;;;;;;;;5038064;28;20109;-92
2022/03/28 05:15:40;;;;;;;42.92;9.00;;;;;;;;;;5037611;28;20045;-93
2022/03/28 05:18:06;;;;;;;32.70;9.55;;;;;;;;;;5037069;28;20411;-93
2022/03/28 05:20:32;;;;;;;27.25;8.40;;;;;;;;;;5036800;28;20029;-93
2022/03/28 05:22:58;;;;;;;17.80;7.32;;;;;;;;;;5037816;28;20116;-92
2022/03/28 05:25:24;;;;;;;16.15;7.53;;;;;;;;;;5037604;28;20104;-91
2022/03/28 05:27:51;;;;;;;16.20;7.72;;;;;;;;;;5036602;28;20037;-93
2022/03/28 05:30:17;;;;;;;13.63;6.53;;;;;;;;;;5036684;28;20054;-92
2022/03/28 05:32:43;;;;;;;23.00;6.80;;;;;;;;;;5037172;28;20104;-93
2022/03/28 05:35:10;;;;;;;17.55;6.38;;;;;;;;;;5037358;28;20040;-92
2022/03/28 05:37:36;;;;;;;19.05;6.78;;;;;;;;;;5037982;28;20033;-93
2022/03/28 05:40:06;;;;;;;22.75;8.48;;;;;;;;;;5036888;28;20056;-91
2022/03/28 05:42:32;;;;;;;20.17;9.50;;;;;;;;;;5037251;28;20029;-93
2022/03/28 05:44:58;;;;;;;22.80;10.57;;;;;;;;;;5036708;28;20029;-94
2022/03/28 05:47:24;;;;;;;21.63;8.88;;;;;;;;;;5053124;28;20411;-91
2022/03/28 05:49:50;;;;;;;15.65;8.27;;;;;;;;;;5037747;28;20033;-93
2022/03/28 05:52:16;;;;;;;17.98;7.45;;;;;;;;;;5038189;28;20472;-92
2022/03/28 05:54:42;;;;;;;23.98;9.43;;;;;;;;;;5037704;28;20030;-92
2022/03/28 05:57:08;;;;;;;17.17;8.15;;;;;;;;;;5037461;28;20021;-91
2022/03/28 05:59:35;;;;;;;18.70;8.18;;;;;;;;;;5037535;28;20060;-93
2022/03/28 06:02:01;;;;;;;19.92;7.97;;;;;;;;;;5037351;28;20021;-92
2022/03/28 06:04:27;;;;;;;16.80;8.57;;;;;;;;;;5032736;28;20033;-93
2022/03/28 06:06:53;;;;;;;18.33;8.43;;;;;;;;;;5020822;28;20026;-93
2022/03/28 06:09:19;;;;;;;19.15;8.13;;;;;;;;;;5022172;28;20034;-91
2022/03/28 06:11:45;;;;;;;13.90;7.78;;;;;;;;;;5021973;28;20056;-91
2022/03/28 06:14:11;;;;;;;16.77;8.13;;;;;;;;;;5037071;28;20029;-92
2022/03/28 06:16:37;;;;;;;15.80;8.25;;;;;;;;;;5041175;28;20071;-92
2022/03/28 06:19:03;;;;;;;28.75;8.50;;;;;;;;;;5041261;28;20028;-92
2022/03/28 06:21:30;;;;;;;18.25;7.75;;;;;;;;;;5041163;28;20428;-90
2022/03/28 06:23:57;;;;;;;18.13;7.85;;;;;;;;;;5041366;28;20104;-91
2022/03/28 06:26:24;;;;;;;15.85;8.20;;;;;;;;;;5041211;28;20055;-92
2022/03/28 06:28:50;;;;;;;22.77;7.85;;;;;;;;;;5040971;28;20030;-92
2022/03/28 06:31:16;;;;;;;21.92;8.60;;;;;;;;;;5040425;28;20036;-92
2022/03/28 06:33:42;;;;;;;17.25;7.35;;;;;;;;;;5041091;28;20036;-91
2022/03/28 06:36:08;;;;;;;14.63;8.02;;;;;;;;;;5040161;28;20049;-90
2022/03/28 06:38:35;;;;;;;14.70;7.35;;;;;;;;;;5040132;28;20435;-90
2022/03/28 06:41:01;;;;;;;12.95;7.43;;;;;;;;;;5040711;28;20030;-90
2022/03/28 06:43:27;;;;;;;22.77;7.00;;;;;;;;;;5039709;28;20043;-90
2022/03/28 06:45:54;;;;;;;20.42;8.02;;;;;;;;;;5040799;28;20029;-90
2022/03/28 06:48:20;;;;;;;17.65;7.05;;;;;;;;;;5040011;28;20032;-91
2022/03/28 06:50:47;;;;;;;14.30;7.20;;;;;;;;;;5040609;28;20032;-90
2022/03/28 06:53:13;;;;;;;13.07;7.10;;;;;;;;;;5040500;28;20415;-94
2022/03/28 06:55:39;;;;;;;18.42;7.35;;;;;;;;;;5039648;28;20028;-90
2022/03/28 06:58:06;;;;;;;12.48;6.40;;;;;;;;;;5039755;28;20075;-88
2022/03/28 07:00:32;;;;;;;14.32;6.22;;;;;;;;;;5040787;28;20035;-90
2022/03/28 07:02:58;;;;;;;17.25;6.57;;;;;;;;;;5039559;28;20104;-90
2022/03/28 07:05:24;;;;;;;12.55;6.15;;;;;;;;;;5040460;28;20024;-93
2022/03/28 07:07:50;;;;;;;12.75;6.50;;;;;;;;;;5040601;28;20113;-88
2022/03/28 07:10:18;;;;;;;17.33;7.00;;;;;;;;;;5040322;28;20025;-87
2022/03/28 07:12:44;;;;;;;12.32;6.07;;;;;;;;;;5040495;28;20019;-86
2022/03/28 07:15:11;;;;;;;12.35;6.63;;;;;;;;;;5039229;28;20052;-88
2022/03/28 07:17:58;;;;;;;18.60;6.85;;;;;;;;;;5039621;28;20029;-90
2022/03/28 07:20:28;;;;;;;137.57;71.25;;;;;;;;;;5039903;28;20048;-88
2022/03/28 07:22:55;;;;;;;18.75;6.55;;;;;;;;;;5040056;28;20022;-89
2022/03/28 07:25:22;;;;;;;13.15;5.30;;;;;;;;;;5039581;28;20095;-88
2022/03/28 07:27:50;;;;;;;17.75;5.28;;;;;;;;;;5039948;28;20026;-88
2022/03/28 07:30:17;;;;;;;12.18;5.20;;;;;;;;;;5039847;28;20045;-88
2022/03/28 07:32:43;;;;;;;16.73;5.10;;;;;;;;;;5040084;28;20052;-89
2022/03/28 07:35:10;;;;;;;14.13;4.35;;;;;;;;;;5039589;28;20075;-89
2022/03/28 07:37:37;;;;;;;15.95;4.72;;;;;;;;;;5039860;28;20022;-90
2022/03/28 07:40:05;;;;;;;11.55;4.70;;;;;;;;;;5039859;28;20025;-88
2022/03/28 07:42:32;;;;;;;13.75;4.57;;;;;;;;;;5039789;28;20022;-88
2022/03/28 07:44:58;;;;;;;9.35;4.10;;;;;;;;;;5039852;28;20029;-89
2022/03/28 07:47:28;;;;;;;7.53;4.13;;;;;;;;;;5038688;28;20032;-88
2022/03/28 07:49:54;;;;;;;10.63;4.78;;;;;;;;;;5039575;28;20036;-89
2022/03/28 07:52:21;;;;;;;12.95;4.45;;;;;;;;;;5039152;28;20155;-89
2022/03/28 07:54:48;;;;;;;12.77;4.32;;;;;;;;;;5039330;28;20033;-88
2022/03/28 07:57:14;;;;;;;9.00;3.92;;;;;;;;;;5039497;28;20017;-88
2022/03/28 07:59:45;;;;;;;11.85;3.92;;;;;;;;;;5039071;28;20057;-88
2022/03/28 08:02:12;;;;;;;7.00;3.70;;;;;;;;;;5039614;28;20428;-88
2022/03/28 08:04:38;;;;;;;9.30;3.40;;;;;;;;;;5038252;28;20541;-89
2022/03/28 08:07:08;;;;;;;10.00;3.60;;;;;;;;;;5038254;28;20083;-88
2022/03/28 08:09:35;;;;;;;8.30;3.33;;;;;;;;;;5039331;28;20068;-88
2022/03/28 08:12:02;;;;;;;7.45;3.40;;;;;;;;;;5038290;28;20025;-88
2022/03/28 08:14:28;;;;;;;6.30;2.67;;;;;;;;;;5038295;28;20099;-89
2022/03/28 08:16:55;;;;;;;11.70;3.90;;;;;;;;;;5039305;28;20081;-89
2022/03/28 08:19:22;;;;;;;13.18;3.60;;;;;;;;;;5038390;28;20482;-88
2022/03/28 08:21:48;;;;;;;9.65;2.92;;;;;;;;;;5039082;28;20029;-88
2022/03/28 08:24:14;;;;;;;7.60;3.55;;;;;;;;;;5039118;28;20033;-89
2022/03/28 08:26:40;;;;;;;10.15;3.95;;;;;;;;;;5039155;28;20045;-88
2022/03/28 08:29:06;;;;;;;16.45;5.05;;;;;;;;;;5038778;28;20133;-89
2022/03/28 08:31:32;;;;;;;12.93;4.40;;;;;;;;;;5038774;28;20023;-90
2022/03/28 08:33:59;;;;;;;16.30;5.30;;;;;;;;;;5037997;28;20355;-89
2022/03/28 08:36:25;;;;;;;12.00;4.03;;;;;;;;;;5038605;28;20343;-89
2022/03/28 08:38:51;;;;;;;10.30;3.80;;;;;;;;;;5037848;28;20026;-89
2022/03/28 08:41:18;;;;;;;8.95;3.50;;;;;;;;;;5038762;28;20079;-89
2022/03/28 08:43:45;;;;;;;9.18;3.40;;;;;;;;;;5038487;28;20025;-88
2022/03/28 08:46:12;;;;;;;9.65;4.13;;;;;;;;;;5038512;28;20025;-90
2022/03/28 08:48:42;;;;;;;10.35;4.32;;;;;;;;;;5038654;28;20038;-88
2022/03/28 08:51:09;;;;;;;9.93;3.85;;;;;;;;;;5038235;28;20021;-89
2022/03/28 08:53:35;;;;;;;12.32;4.47;;;;;;;;;;5038354;28;20026;-90
2022/03/28 08:56:01;;;;;;;8.80;4.00;;;;;;;;;;5038650;28;20025;-88
2022/03/28 08:58:27;;;;;;;9.30;3.90;;;;;;;;;;5037424;28;20033;-90
2022/03/28 09:00:54;;;;;;;9.60;4.22;;;;;;;;;;5037150;28;20017;-89
2022/03/28 09:03:20;;;;;;;10.60;3.60;;;;;;;;;;5037421;28;20025;-89
2022/03/28 09:05:50;;;;;;;11.75;3.95;;;;;;;;;;5036718;28;20036;-90
2022/03/28 09:08:16;;;;;;;9.98;5.03;;;;;;;;;;5038137;28;20056;-89
2022/03/28 09:10:47;;;;;;;12.93;4.70;;;;;;;;;;5038186;28;20358;-88
2022/03/28 09:13:14;;;;;;;10.65;3.97;;;;;;;;;;5037901;28;20030;-91
2022/03/28 09:15:49;;;;;;;10.38;4.47;;;;;;;;;;5038139;28;20024;-90
2022/03/28 09:18:29;;;;;;;7.82;4.07;;;;;;;;;;5037827;28;20097;-90
2022/03/28 09:20:56;;;;;;;12.23;4.50;;;;;;;;;;5037259;28;20045;-89
2022/03/28 09:23:26;;;;;;;7.65;4.20;;;;;;;;;;5037817;28;20404;-89
2022/03/28 09:25:52;;;;;;;11.85;4.68;;;;;;;;;;5037626;28;20419;-89
2022/03/28 09:28:25;;;;;;;8.73;4.47;;;;;;;;;;5037783;28;20029;-88
2022/03/28 09:30:51;;;;;;;8.93;4.40;;;;;;;;;;5037767;28;20045;-89
2022/03/28 09:33:18;;;;;;;15.20;4.82;;;;;;;;;;5037697;28;20068;-89
2022/03/28 09:35:48;;;;;;;13.80;4.68;;;;;;;;;;5037662;28;20026;-89
2022/03/28 09:38:18;;;;;;;7.18;4.32;;;;;;;;;;5037774;28;20079;-88
2022/03/28 09:40:54;;;;;;;10.95;4.75;;;;;;;;;;5037352;28;20022;-89
2022/03/28 09:43:21;;;;;;;10.32;4.35;;;;;;;;;;5037454;28;20037;-89
2022/03/28 09:45:53;;;;;;;8.13;4.47;;;;;;;;;;5037429;28;20057;-90
2022/03/28 09:48:20;;;;;;;10.95;4.90;;;;;;;;;;5037748;28;20041;-87
2022/03/28 09:50:59;;;;;;;9.80;4.50;;;;;;;;;;5037469;28;20026;-89
2022/03/28 09:53:31;;;;;;;12.20;5.20;;;;;;;;;;5037139;28;20048;-88
2022/03/28 09:56:01;;;;;;;9.15;5.30;;;;;;;;;;5037382;28;20033;-89
2022/03/28 09:58:46;;;;;;;7.88;4.50;;;;;;;;;;5036336;28;20052;-89
2022/03/28 10:01:20;;;;;;;11.95;4.90;;;;;;;;;;5037397;28;20033;-89
2022/03/28 10:03:50;;;;;;;12.68;4.47;;;;;;;;;;5036681;28;20044;-89
2022/03/28 10:06:17;;;;;;;9.07;4.40;;;;;;;;;;5036649;28;20022;-88
2022/03/28 10:08:46;;;;;;;14.43;7.00;;;;;;;;;;5037475;28;20458;-88
2022/03/28 10:11:13;;;;;;;14.52;7.55;;;;;;;;;;5036354;28;20041;-88
2022/03/28 10:13:42;;;;;;;13.60;6.95;;;;;;;;;;5036328;28;20423;-89
2022/03/28 10:16:09;;;;;;;16.73;7.13;;;;;;;;;;5036755;28;20451;-90
2022/03/28 10:18:36;;;;;;;14.05;3.92;;;;;;;;;;5036577;28;20120;-89
2022/03/28 10:21:04;;;;;;;9.30;3.85;;;;;;;;;;5036245;28;20404;-89
2022/03/28 10:23:43;;;;;;;6.22;3.38;;;;;;;;;;5036195;28;20025;-89
2022/03/28 10:26:09;;;;;;;5.93;3.55;;;;;;;;;;5036559;28;20068;-88
2022/03/28 10:28:36;;;;;;;14.35;4.15;;;;;;;;;;5036468;28;20040;-89
2022/03/28 10:31:08;;;;;;;9.13;4.07;;;;;;;;;;5037079;28;20049;-89
2022/03/28 10:33:34;;;;;;;9.52;4.70;;;;;;;;;;5036920;28;20400;-89
2022/03/28 10:36:05;;;;;;;10.43;4.25;;;;;;;;;;5036980;28;20022;-88
2022/03/28 10:38:31;;;;;;;7.53;3.95;;;;;;;;;;5037265;28;20478;-89
2022/03/28 10:41:01;;;;;;;6.22;3.20;;;;;;;;;;5037094;28;20030;-89
2022/03/28 10:43:30;;;;;;;9.40;3.83;;;;;;;;;;5036432;28;20065;-89
2022/03/28 10:45:58;;;;;;;6.40;3.15;;;;;;;;;;5037078;28;20022;-89
2022/03/28 10:48:33;;;;;;;6.18;3.25;;;;;;;;;;5036615;28;20061;-89
2022/03/28 10:51:04;;;;;;;8.38;3.38;;;;;;;;;;5036170;28;20029;-89
2022/03/28 10:53:37;;;;;;;6.00;3.60;;;;;;;;;;5040382;28;20036;-89
2022/03/28 10:56:24;;;;;;;4.63;3.28;;;;;;;;;;5040785;28;20026;-89
2022/03/28 10:58:54;;;;;;;7.72;3.28;;;;;;;;;;5040622;28;20029;-89
2022/03/28 11:01:22;;;;;;;6.88;3.75;;;;;;;;;;5040348;28;20040;-89
2022/03/28 11:04:06;;;;;;;6.30;3.67;;;;;;;;;;5039804;28;20038;-90
2022/03/28 11:06:53;;;;;;;10.90;3.40;;;;;;;;;;5039676;28;20036;-89
2022/03/28 11:09:34;;;;;;;6.93;3.75;;;;;;;;;;5040374;28;20029;-89
2022/03/28 11:12:01;;;;;;;8.32;4.18;;;;;;;;;;5040416;28;20327;-90
2022/03/28 11:14:54;;;;;;;6.47;3.65;;;;;;;;;;5040353;28;20060;-90
2022/03/28 11:17:22;;;;;;;8.10;4.05;;;;;;;;;;5039295;28;20419;-89
2022/03/28 11:19:52;;;;;;;7.43;3.30;;;;;;;;;;5040136;28;20026;-90
2022/03/28 11:22:18;;;;;;;7.13;3.95;;;;;;;;;;5039892;28;20362;-91
2022/03/28 11:24:58;;;;;;;9.20;4.30;;;;;;;;;;5040435;28;20026;-90
2022/03/28 11:27:37;;;;;;;9.43;3.88;;;;;;;;;;5040007;28;20427;-90
2022/03/28 11:30:05;;;;;;;11.68;3.78;;;;;;;;;;5039669;28;20062;-90
2022/03/28 11:32:37;;;;;;;5.97;3.58;;;;;;;;;;5038990;28;20125;-89
2022/03/28 11:35:04;;;;;;;8.68;3.72;;;;;;;;;;5039700;28;20034;-89
2022/03/28 11:37:30;;;;;;;12.70;3.70;;;;;;;;;;5038993;28;20032;-90
2022/03/28 11:40:02;;;;;;;8.95;4.25;;;;;;;;;;5038975;28;20052;-90
2022/03/28 11:42:30;;;;;;;10.57;3.80;;;;;;;;;;5039988;28;20053;-89
2022/03/28 11:45:02;;;;;;;8.50;3.97;;;;;;;;;;5039723;28;20025;-89
2022/03/28 11:47:28;;;;;;;4.95;3.42;;;;;;;;;;5038648;28;20420;-91
2022/03/28 11:49:56;;;;;;;7.18;3.47;;;;;;;;;;5039754;28;20093;-90
2022/03/28 11:52:22;;;;;;;8.60;4.07;;;;;;;;;;5039415;28;20033;-89
2022/03/28 11:54:48;;;;;;;8.73;3.80;;;;;;;;;;5039474;28;20026;-90
2022/03/28 12:00:14;;;;;;;10.63;4.28;;;;;;;;;;5040248;28;20100;-88
2022/03/28 12:02:46;;;;;;;6.60;3.53;;;;;;;;;;5039135;28;20025;-90
2022/03/28 12:05:12;;;;;;;12.40;4.18;;;;;;;;;;5039324;28;20052;-91
2022/03/28 12:07:40;;;;;;;12.20;5.22;;;;;;;;;;5039288;28;20044;-90
2022/03/28 12:10:08;;;;;;;11.32;4.78;;;;;;;;;;5039035;28;20029;-91
2022/03/28 12:12:34;;;;;;;5.55;3.65;;;;;;;;;;5038943;28;20426;-88
2022/03/28 12:15:01;;;;;;;6.78;3.80;;;;;;;;;;5038879;28;20378;-89
2022/03/28 12:17:27;;;;;;;7.43;3.90;;;;;;;;;;5038250;28;20161;-89
2022/03/28 12:20:01;;;;;;;6.43;3.53;;;;;;;;;;5039252;28;20017;-89
2022/03/28 12:22:27;;;;;;;7.25;4.35;;;;;;;;;;5038317;28;20029;-89
2022/03/28 12:24:53;;;;;;;4.75;3.20;;;;;;;;;;5038075;28;20486;-88
2022/03/28 12:27:20;;;;;;;5.63;4.10;;;;;;;;;;5039104;28;20033;-92
2022/03/28 12:29:46;;;;;;;5.65;3.53;;;;;;;;;;5039234;28;20111;-93
2022/03/28 12:32:17;;;;;;;9.88;5.18;;;;;;;;;;5038954;28;20027;-90
2022/03/28 12:34:44;;;;;;;9.30;3.72;;;;;;;;;;5037816;28;20029;-90
2022/03/28 12:37:14;;;;;;;10.60;4.00;;;;;;;;;;5038460;28;20026;-91
2022/03/28 12:39:43;;;;;;;6.18;4.00;;;;;;;;;;5037650;28;20029;-90
2022/03/28 12:42:09;;;;;;;5.32;3.42;;;;;;;;;;5037641;28;20022;-90
2022/03/28 12:44:35;;;;;;;9.70;3.40;;;;;;;;;;5037841;28;20324;-90
2022/03/28 12:47:03;;;;;;;7.00;3.53;;;;;;;;;;5037599;28;20032;-90
2022/03/28 12:49:39;;;;;;;8.65;3.45;;;;;;;;;;5037550;28;20323;-90
2022/03/28 12:52:09;;;;;;;5.13;3.53;;;;;;;;;;5038459;28;20025;-90
2022/03/28 12:54:35;;;;;;;5.88;3.15;;;;;;;;;;5038469;28;20025;-90
2022/03/28 12:57:02;;;;;;;7.43;3.38;;;;;;;;;;5038216;28;20026;-90
2022/03/28 12:59:32;;;;;;;8.15;3.20;;;;;;;;;;5038454;28;20025;-90
2022/03/28 13:02:18;;;;;;;4.68;2.88;;;;;;;;;;5038387;28;20037;-89
2022/03/28 13:04:44;;;;;;;5.55;3.53;;;;;;;;;;5037171;28;20030;-88
2022/03/28 13:07:17;;;;;;;7.30;3.38;;;;;;;;;;5038430;28;20109;-90
2022/03/28 13:09:52;;;;;;;6.55;3.60;;;;;;;;;;5038030;28;20069;-89
2022/03/28 13:12:19;;;;;;;6.43;3.40;;;;;;;;;;5037978;28;20033;-90
2022/03/28 13:14:52;;;;;;;5.68;3.20;;;;;;;;;;5037226;28;20025;-91
2022/03/28 13:17:20;;;;;;;5.50;3.17;;;;;;;;;;5038059;28;20048;-91
2022/03/28 13:19:57;;;;;;;6.05;3.28;;;;;;;;;;5037899;28;20026;-91
2022/03/28 13:22:32;;;;;;;7.97;3.42;;;;;;;;;;5037286;28;20359;-90
2022/03/28 13:25:17;;;;;;;7.65;3.33;;;;;;;;;;5037720;28;20027;-91
2022/03/28 13:28:10;;;;;;;7.65;3.47;;;;;;;;;;5037896;28;20067;-91
2022/03/28 13:30:44;;;;;;;36.10;4.82;;;;;;;;;;5037571;28;20115;-90
2022/03/28 13:33:12;;;;;;;9.05;2.90;;;;;;;;;;5037103;28;20083;-90
2022/03/28 13:35:39;;;;;;;6.40;2.97;;;;;;;;;;5036636;28;20038;-91
2022/03/28 13:38:10;;;;;;;6.05;2.80;;;;;;;;;;5037482;28;20026;-91
2022/03/28 13:40:38;;;;;;;6.13;2.95;;;;;;;;;;5037687;28;20029;-90
2022/03/28 13:43:05;;;;;;;4.22;2.63;;;;;;;;;;5037572;28;20040;-91
2022/03/28 13:45:33;;;;;;;5.70;2.85;;;;;;;;;;5037804;28;20049;-90
2022/03/28 13:48:02;;;;;;;11.88;3.35;;;;;;;;;;5036681;28;20025;-91
2022/03/28 13:50:30;;;;;;;8.55;2.85;;;;;;;;;;5036864;28;20319;-91
2022/03/28 13:52:57;;;;;;;6.20;2.63;;;;;;;;;;5037346;28;20492;-89
2022/03/28 13:55:23;;;;;;;7.70;3.20;;;;;;;;;;5037504;28;20304;-91
2022/03/28 13:57:49;;;;;;;6.80;3.10;;;;;;;;;;5036621;28;20112;-91
2022/03/28 14:00:16;;;;;;;4.82;2.40;;;;;;;;;;5036822;28;20034;-90
2022/03/28 14:02:42;;;;;;;7.38;2.55;;;;;;;;;;5037693;28;20025;-90
2022/03/28 14:05:08;;;;;;;8.50;3.13;;;;;;;;;;5036991;28;20392;-91
2022/03/28 14:07:39;;;;;;;6.78;2.97;;;;;;;;;;5037495;28;20033;-90
2022/03/28 14:10:06;;;;;;;5.45;2.88;;;;;;;;;;5036645;28;20073;-91
2022/03/28 14:12:32;;;;;;;12.07;5.28;;;;;;;;;;5037430;28;20045;-90
2022/03/28 14:14:58;;;;;;;10.95;5.38;;;;;;;;;;5037545;28;20025;-91
2022/03/28 14:17:24;;;;;;;13.85;5.15;;;;;;;;;;5037513;28;20025;-91
2022/03/28 14:19:51;;;;;;;17.98;10.82;;;;;;;;;;5037154;28;20026;-91
2022/03/28 14:22:17;;;;;;;6.07;4.38;;;;;;;;;;5037112;28;20017;-90
2022/03/28 14:24:46;;;;;;;4.30;2.63;;;;;;;;;;5037075;28;20022;-91
2022/03/28 14:27:12;;;;;;;5.50;2.90;;;;;;;;;;5040271;28;20105;-91
2022/03/28 14:29:40;;;;;;;6.80;2.65;;;;;;;;;;5040124;28;20053;-91
2022/03/28 14:32:07;;;;;;;4.28;2.58;;;;;;;;;;5041107;28;20029;-91
2022/03/28 14:34:40;;;;;;;5.20;2.90;;;;;;;;;;5040671;28;20029;-92
2022/03/28 14:37:06;;;;;;;12.52;4.97;;;;;;;;;;5040954;28;20022;-91
2022/03/28 14:39:33;;;;;;;8.90;3.67;;;;;;;;;;5040755;28;20025;-91
2022/03/28 14:41:59;;;;;;;6.75;3.17;;;;;;;;;;5041226;28;20331;-89
2022/03/28 14:44:25;;;;;;;5.95;2.40;;;;;;;;;;5040984;28;20316;-90